sensor_id;sensor_type;location;lat;lon;timestamp;pressure;altitude;pressure_sealevel;temperature;humidity
24422;BME280;12600;53.326;-6.298;2023-04-08T00:02:23;101790.66;;;10.39;67.29
24422;BME280;12600;53.326;-6.298;2023-04-08T00:05:13;101794.19;;;10.39;67.89
24422;BME280;12600;53.326;-6.298;2023-04-08T00:08:03;101780.84;;;10.32;68.37
24422;BME280;12600;53.326;-6.298;2023-04-08T00:10:52;101797.22;;;10.38;68.03
24422;BME280;12600;53.326;-6.298;2023-04-08T00:13:41;101793.16;;;10.35;68.23
24422;BME280;12600;53.326;-6.298;2023-04-08T00:16:32;101798.03;;;10.38;68.62
24422;BME280;12600;53.326;-6.298;2023-04-08T00:19:21;101801.88;;;10.37;69.57
24422;BME280;12600;53.326;-6.298;2023-04-08T00:22:12;101808.16;;;10.38;69.24
24422;BME280;12600;53.326;-6.298;2023-04-08T00:25:02;101787.13;;;10.33;69.38
24422;BME280;12600;53.326;-6.298;2023-04-08T00:27:53;101799.41;;;10.35;69.47
24422;BME280;12600;53.326;-6.298;2023-04-08T00:30:42;101795.31;;;10.38;69.06
24422;BME280;12600;53.326;-6.298;2023-04-08T00:33:34;101796.94;;;10.39;69.15
24422;BME280;12600;53.326;-6.298;2023-04-08T00:36:23;101792.03;;;10.36;69.47
24422;BME280;12600;53.326;-6.298;2023-04-08T00:39:14;101792.59;;;10.33;70.16
24422;BME280;12600;53.326;-6.298;2023-04-08T00:42:03;101783.63;;;10.22;70.71
24422;BME280;12600;53.326;-6.298;2023-04-08T00:44:52;101788.78;;;10.29;70.41
24422;BME280;12600;53.326;-6.298;2023-04-08T00:47:42;101794.25;;;10.29;71.40
24422;BME280;12600;53.326;-6.298;2023-04-08T00:50:33;101799.19;;;10.27;70.91
24422;BME280;12600;53.326;-6.298;2023-04-08T00:53:22;101780.63;;;10.14;71.39
24422;BME280;12600;53.326;-6.298;2023-04-08T00:56:12;101801.34;;;10.25;71.37
24422;BME280;12600;53.326;-6.298;2023-04-08T00:59:02;101789.09;;;10.22;71.92
24422;BME280;12600;53.326;-6.298;2023-04-08T01:02:01;101788.50;;;10.25;71.75
24422;BME280;12600;53.326;-6.298;2023-04-08T01:04:59;101772.41;;;10.19;72.10
24422;BME280;12600;53.326;-6.298;2023-04-08T01:07:52;101774.06;;;10.20;72.05
24422;BME280;12600;53.326;-6.298;2023-04-08T01:10:42;101786.34;;;10.27;72.27
24422;BME280;12600;53.326;-6.298;2023-04-08T01:13:38;101788.78;;;10.29;72.75
24422;BME280;12600;53.326;-6.298;2023-04-08T01:16:28;101784.97;;;10.30;72.56
24422;BME280;12600;53.326;-6.298;2023-04-08T01:19:27;101781.38;;;10.34;72.40
24422;BME280;12600;53.326;-6.298;2023-04-08T01:22:24;101781.38;;;10.34;72.90
24422;BME280;12600;53.326;-6.298;2023-04-08T01:25:20;101776.75;;;10.35;72.75
24422;BME280;12600;53.326;-6.298;2023-04-08T01:28:15;101788.75;;;10.39;73.13
24422;BME280;12600;53.326;-6.298;2023-04-08T01:31:06;101783.81;;;10.41;72.91
24422;BME280;12600;53.326;-6.298;2023-04-08T01:33:57;101791.16;;;10.46;72.74
24422;BME280;12600;53.326;-6.298;2023-04-08T01:36:49;101779.66;;;10.49;72.63
24422;BME280;12600;53.326;-6.298;2023-04-08T01:39:39;101791.41;;;10.49;72.73
24422;BME280;12600;53.326;-6.298;2023-04-08T01:42:31;101779.94;;;10.52;73.07
24422;BME280;12600;53.326;-6.298;2023-04-08T01:45:23;101785.94;;;10.49;72.34
24422;BME280;12600;53.326;-6.298;2023-04-08T01:48:14;101784.03;;;10.50;73.29
24422;BME280;12600;53.326;-6.298;2023-04-08T01:51:04;101786.28;;;10.43;73.30
24422;BME280;12600;53.326;-6.298;2023-04-08T01:53:56;101780.53;;;10.44;74.03
24422;BME280;12600;53.326;-6.298;2023-04-08T01:56:46;101775.06;;;10.44;74.19
24422;BME280;12600;53.326;-6.298;2023-04-08T01:59:37;101769.03;;;10.42;74.13
24422;BME280;12600;53.326;-6.298;2023-04-08T02:02:30;101766.28;;;10.47;74.21
24422;BME280;12600;53.326;-6.298;2023-04-08T02:05:20;101773.91;;;10.50;74.02
24422;BME280;12600;53.326;-6.298;2023-04-08T02:08:10;101779.38;;;10.50;73.88
24422;BME280;12600;53.326;-6.298;2023-04-08T02:11:00;101785.94;;;10.49;73.60
24422;BME280;12600;53.326;-6.298;2023-04-08T02:13:50;101766.06;;;10.39;73.40
24422;BME280;12600;53.326;-6.298;2023-04-08T02:16:45;101783.78;;;10.51;73.39
24422;BME280;12600;53.326;-6.298;2023-04-08T02:19:45;101785.41;;;10.52;73.11
24422;BME280;12600;53.326;-6.298;2023-04-08T02:22:42;101784.91;;;10.45;73.00
24422;BME280;12600;53.326;-6.298;2023-04-08T02:25:35;101785.44;;;10.42;73.17
24422;BME280;12600;53.326;-6.298;2023-04-08T02:28:26;101790.38;;;10.40;72.97
24422;BME280;12600;53.326;-6.298;2023-04-08T02:31:18;101787.94;;;10.39;72.90
24422;BME280;12600;53.326;-6.298;2023-04-08T02:34:09;101771.31;;;10.25;73.32
24422;BME280;12600;53.326;-6.298;2023-04-08T02:37:01;101782.75;;;10.32;73.13
24422;BME280;12600;53.326;-6.298;2023-04-08T02:39:52;101783.88;;;10.26;73.48
24422;BME280;12600;53.326;-6.298;2023-04-08T02:42:41;101771.84;;;10.17;73.74
24422;BME280;12600;53.326;-6.298;2023-04-08T02:45:32;101775.69;;;10.21;74.43
24422;BME280;12600;53.326;-6.298;2023-04-08T02:48:23;101777.06;;;10.23;74.31
24422;BME280;12600;53.326;-6.298;2023-04-08T02:51:12;101775.41;;;10.17;75.24
24422;BME280;12600;53.326;-6.298;2023-04-08T02:54:03;101769.69;;;10.14;75.71
24422;BME280;12600;53.326;-6.298;2023-04-08T02:56:52;101764.47;;;10.17;75.85
24422;BME280;12600;53.326;-6.298;2023-04-08T02:59:41;101759.28;;;10.21;76.32
24422;BME280;12600;53.326;-6.298;2023-04-08T03:02:31;101761.19;;;10.25;75.97
24422;BME280;12600;53.326;-6.298;2023-04-08T03:05:20;101767.47;;;10.36;75.89
24422;BME280;12600;53.326;-6.298;2023-04-08T03:08:09;101767.97;;;10.38;75.57
24422;BME280;12600;53.326;-6.298;2023-04-08T03:11:00;101772.34;;;10.44;75.41
24422;BME280;12600;53.326;-6.298;2023-04-08T03:13:49;101768.22;;;10.47;75.24
24422;BME280;12600;53.326;-6.298;2023-04-08T03:16:38;101774.22;;;10.49;75.08
24422;BME280;12600;53.326;-6.298;2023-04-08T03:19:28;101773.09;;;10.50;74.66
24422;BME280;12600;53.326;-6.298;2023-04-08T03:22:17;101770.13;;;10.51;74.57
24422;BME280;12600;53.326;-6.298;2023-04-08T03:25:08;101762.75;;;10.47;74.32
24422;BME280;12600;53.326;-6.298;2023-04-08T03:28:00;101764.09;;;10.49;73.84
24422;BME280;12600;53.326;-6.298;2023-04-08T03:30:50;101760.31;;;10.45;73.33
24422;BME280;12600;53.326;-6.298;2023-04-08T03:33:39;101771.75;;;10.47;73.46
24422;BME280;12600;53.326;-6.298;2023-04-08T03:36:28;101767.41;;;10.46;73.21
24422;BME280;12600;53.326;-6.298;2023-04-08T03:39:18;101761.41;;;10.39;73.03
24422;BME280;12600;53.326;-6.298;2023-04-08T03:42:08;101770.16;;;10.41;72.68
24422;BME280;12600;53.326;-6.298;2023-04-08T03:44:58;101722.75;;;10.12;72.53
24422;BME280;12600;53.326;-6.298;2023-04-08T03:47:47;101768.28;;;10.36;72.62
24422;BME280;12600;53.326;-6.298;2023-04-08T03:50:37;101762.00;;;10.36;72.26
24422;BME280;12600;53.326;-6.298;2023-04-08T03:53:26;101764.16;;;10.34;72.25
24422;BME280;12600;53.326;-6.298;2023-04-08T03:56:18;101765.03;;;10.29;72.05
24422;BME280;12600;53.326;-6.298;2023-04-08T03:59:10;101756.56;;;10.26;72.08
24422;BME280;12600;53.326;-6.298;2023-04-08T04:02:01;101751.38;;;10.19;72.07
24422;BME280;12600;53.326;-6.298;2023-04-08T04:04:52;101751.09;;;10.21;72.00
24422;BME280;12600;53.326;-6.298;2023-04-08T04:07:41;101752.75;;;10.17;71.80
24422;BME280;12600;53.326;-6.298;2023-04-08T04:10:31;101759.84;;;10.18;71.83
24422;BME280;12600;53.326;-6.298;2023-04-08T04:13:20;101751.41;;;10.14;71.73
24422;BME280;12600;53.326;-6.298;2023-04-08T04:16:09;101755.75;;;10.10;72.41
24422;BME280;12600;53.326;-6.298;2023-04-08T04:19:00;101758.50;;;10.10;72.38
24422;BME280;12600;53.326;-6.298;2023-04-08T04:21:52;101759.34;;;10.11;72.97
24422;BME280;12600;53.326;-6.298;2023-04-08T04:24:48;101756.84;;;10.19;73.01
24422;BME280;12600;53.326;-6.298;2023-04-08T04:27:37;101752.75;;;10.17;72.60
24422;BME280;12600;53.326;-6.298;2023-04-08T04:30:30;101752.22;;;10.09;73.05
24422;BME280;12600;53.326;-6.298;2023-04-08T04:33:21;101756.03;;;10.19;72.82
24422;BME280;12600;53.326;-6.298;2023-04-08T04:36:12;101760.66;;;10.18;72.82
24422;BME280;12600;53.326;-6.298;2023-04-08T04:39:01;101745.94;;;10.09;73.02
24422;BME280;12600;53.326;-6.298;2023-04-08T04:41:50;101751.16;;;10.11;74.02
24422;BME280;12600;53.326;-6.298;2023-04-08T04:44:40;101754.94;;;10.15;73.77
24422;BME280;12600;53.326;-6.298;2023-04-08T04:47:29;101749.47;;;10.15;73.65
24422;BME280;12600;53.326;-6.298;2023-04-08T04:50:19;101751.69;;;10.13;73.35
24422;BME280;12600;53.326;-6.298;2023-04-08T04:53:10;101748.97;;;10.07;74.24
24422;BME280;12600;53.326;-6.298;2023-04-08T04:55:59;101756.63;;;10.05;74.74
24422;BME280;12600;53.326;-6.298;2023-04-08T04:58:49;101757.72;;;10.04;74.64
24422;BME280;12600;53.326;-6.298;2023-04-08T05:01:38;101765.63;;;10.06;74.91
24422;BME280;12600;53.326;-6.298;2023-04-08T05:04:28;101761.56;;;9.98;75.33
24422;BME280;12600;53.326;-6.298;2023-04-08T05:07:17;101772.19;;;10.05;75.46
24422;BME280;12600;53.326;-6.298;2023-04-08T05:10:09;101760.72;;;10.03;75.40
24422;BME280;12600;53.326;-6.298;2023-04-08T05:12:59;101759.06;;;10.02;75.60
24422;BME280;12600;53.326;-6.298;2023-04-08T05:15:48;101760.97;;;10.01;75.28
24422;BME280;12600;53.326;-6.298;2023-04-08T05:18:37;101752.53;;;9.98;75.90
24422;BME280;12600;53.326;-6.298;2023-04-08T05:21:27;101761.31;;;9.95;76.06
24422;BME280;12600;53.326;-6.298;2023-04-08T05:24:16;101769.50;;;9.95;76.12
24422;BME280;12600;53.326;-6.298;2023-04-08T05:27:07;101761.84;;;9.92;76.03
24422;BME280;12600;53.326;-6.298;2023-04-08T05:29:56;101759.41;;;9.90;75.97
24422;BME280;12600;53.326;-6.298;2023-04-08T05:32:45;101769.22;;;9.91;76.25
24422;BME280;12600;53.326;-6.298;2023-04-08T05:35:35;101771.41;;;9.89;76.43
24422;BME280;12600;53.326;-6.298;2023-04-08T05:38:24;101762.69;;;9.82;76.29
24422;BME280;12600;53.326;-6.298;2023-04-08T05:41:15;101774.41;;;9.82;76.52
24422;BME280;12600;53.326;-6.298;2023-04-08T05:44:06;101779.59;;;9.84;76.39
24422;BME280;12600;53.326;-6.298;2023-04-08T05:46:55;101764.88;;;9.80;76.63
24422;BME280;12600;53.326;-6.298;2023-04-08T05:49:45;101775.25;;;9.78;76.19
24422;BME280;12600;53.326;-6.298;2023-04-08T05:52:36;101777.16;;;9.77;76.56
24422;BME280;12600;53.326;-6.298;2023-04-08T05:55:25;101785.09;;;9.74;76.54
24422;BME280;12600;53.326;-6.298;2023-04-08T05:58:15;101781.25;;;9.75;76.51
24422;BME280;12600;53.326;-6.298;2023-04-08T06:01:05;101784.00;;;9.75;76.71
24422;BME280;12600;53.326;-6.298;2023-04-08T06:03:55;101784.81;;;9.75;76.89
24422;BME280;12600;53.326;-6.298;2023-04-08T06:06:44;101788.91;;;9.73;77.00
24422;BME280;12600;53.326;-6.298;2023-04-08T06:09:35;101779.91;;;9.72;76.88
24422;BME280;12600;53.326;-6.298;2023-04-08T06:12:24;101796.00;;;9.79;76.51
24422;BME280;12600;53.326;-6.298;2023-04-08T06:15:14;101791.63;;;9.83;76.64
24422;BME280;12600;53.326;-6.298;2023-04-08T06:18:04;101791.91;;;9.87;76.81
24422;BME280;12600;53.326;-6.298;2023-04-08T06:20:54;101787.25;;;9.82;76.90
24422;BME280;12600;53.326;-6.298;2023-04-08T06:23:43;101792.41;;;9.94;77.02
24422;BME280;12600;53.326;-6.298;2023-04-08T06:26:32;101791.84;;;10.02;76.98
24422;BME280;12600;53.326;-6.298;2023-04-08T06:29:22;101791.28;;;10.05;77.01
24422;BME280;12600;53.326;-6.298;2023-04-08T06:32:11;101793.75;;;10.12;76.96
24422;BME280;12600;53.326;-6.298;2023-04-08T06:35:02;101799.72;;;10.14;77.29
24422;BME280;12600;53.326;-6.298;2023-04-08T06:37:51;101806.00;;;10.19;77.20
24422;BME280;12600;53.326;-6.298;2023-04-08T06:40:41;101792.34;;;10.14;77.24
24422;BME280;12600;53.326;-6.298;2023-04-08T06:43:30;101803.81;;;10.21;77.19
24422;BME280;12600;53.326;-6.298;2023-04-08T06:46:19;101811.75;;;10.28;77.34
24422;BME280;12600;53.326;-6.298;2023-04-08T06:49:09;101817.44;;;10.31;77.10
24422;BME280;12600;53.326;-6.298;2023-04-08T06:51:59;101825.94;;;10.35;77.31
24422;BME280;12600;53.326;-6.298;2023-04-08T06:54:48;101823.72;;;10.37;77.20
24422;BME280;12600;53.326;-6.298;2023-04-08T06:57:41;101815.50;;;10.42;76.85
24422;BME280;12600;53.326;-6.298;2023-04-08T07:00:30;101818.50;;;10.41;77.10
24422;BME280;12600;53.326;-6.298;2023-04-08T07:03:19;101817.69;;;10.45;76.99
24422;BME280;12600;53.326;-6.298;2023-04-08T07:06:09;101825.03;;;10.50;76.90
24422;BME280;12600;53.326;-6.298;2023-04-08T07:09:00;101822.56;;;10.48;77.28
24422;BME280;12600;53.326;-6.298;2023-04-08T07:11:49;101823.38;;;10.54;77.57
24422;BME280;12600;53.326;-6.298;2023-04-08T07:14:38;101833.97;;;10.65;77.31
24422;BME280;12600;53.326;-6.298;2023-04-08T07:17:27;101832.28;;;10.75;77.53
24422;BME280;12600;53.326;-6.298;2023-04-08T07:20:17;101832.78;;;10.87;77.52
24422;BME280;12600;53.326;-6.298;2023-04-08T07:23:06;101834.03;;;11.05;77.51
24422;BME280;12600;53.326;-6.298;2023-04-08T07:26:01;101836.59;;;11.30;77.84
24422;BME280;12600;53.326;-6.298;2023-04-08T07:28:51;101838.28;;;11.60;78.41
24422;BME280;12600;53.326;-6.298;2023-04-08T07:31:42;101840.28;;;11.84;77.86
24422;BME280;12600;53.326;-6.298;2023-04-08T07:34:33;101843.47;;;11.96;77.73
24422;BME280;12600;53.326;-6.298;2023-04-08T07:37:23;101846.19;;;11.96;76.96
24422;BME280;12600;53.326;-6.298;2023-04-08T07:40:13;101841.00;;;11.94;77.02
24422;BME280;12600;53.326;-6.298;2023-04-08T07:43:04;101843.78;;;11.89;75.52
24422;BME280;12600;53.326;-6.298;2023-04-08T07:45:55;101838.00;;;11.96;74.75
24422;BME280;12600;53.326;-6.298;2023-04-08T07:48:49;101857.59;;;12.32;75.18
24422;BME280;12600;53.326;-6.298;2023-04-08T07:51:39;101859.16;;;12.62;75.18
24422;BME280;12600;53.326;-6.298;2023-04-08T07:54:30;101859.31;;;12.71;72.80
24422;BME280;12600;53.326;-6.298;2023-04-08T07:57:21;101875.94;;;12.79;71.58
24422;BME280;12600;53.326;-6.298;2023-04-08T08:00:13;101872.06;;;12.80;71.50
24422;BME280;12600;53.326;-6.298;2023-04-08T08:03:08;101867.25;;;12.91;71.27
24422;BME280;12600;53.326;-6.298;2023-04-08T08:05:57;101856.63;;;13.27;70.85
24422;BME280;12600;53.326;-6.298;2023-04-08T08:08:46;101877.63;;;13.88;69.60
24422;BME280;12600;53.326;-6.298;2023-04-08T08:11:38;101881.84;;;14.27;69.35
24422;BME280;12600;53.326;-6.298;2023-04-08T08:14:28;101880.69;;;14.47;69.08
24422;BME280;12600;53.326;-6.298;2023-04-08T08:17:18;101881.59;;;14.56;66.87
24422;BME280;12600;53.326;-6.298;2023-04-08T08:20:08;101883.94;;;14.49;64.88
24422;BME280;12600;53.326;-6.298;2023-04-08T08:22:58;101886.19;;;14.47;64.04
24422;BME280;12600;53.326;-6.298;2023-04-08T08:25:47;101882.56;;;14.33;61.58
24422;BME280;12600;53.326;-6.298;2023-04-08T08:28:37;101873.81;;;14.31;62.12
24422;BME280;12600;53.326;-6.298;2023-04-08T08:31:27;101889.38;;;14.21;60.28
24422;BME280;12600;53.326;-6.298;2023-04-08T08:34:23;101889.28;;;14.13;59.75
24422;BME280;12600;53.326;-6.298;2023-04-08T08:37:19;101883.16;;;14.16;59.54
24422;BME280;12600;53.326;-6.298;2023-04-08T08:40:10;101884.03;;;14.44;60.11
24422;BME280;12600;53.326;-6.298;2023-04-08T08:42:59;101870.78;;;14.73;60.20
24422;BME280;12600;53.326;-6.298;2023-04-08T08:45:49;101871.97;;;15.08;59.45
24422;BME280;12600;53.326;-6.298;2023-04-08T08:48:38;101883.22;;;15.57;59.82
24422;BME280;12600;53.326;-6.298;2023-04-08T08:51:29;101880.47;;;16.10;55.84
24422;BME280;12600;53.326;-6.298;2023-04-08T08:54:19;101863.56;;;16.74;56.04
24422;BME280;12600;53.326;-6.298;2023-04-08T08:57:16;101871.59;;;17.10;51.58
24422;BME280;12600;53.326;-6.298;2023-04-08T09:00:08;101866.84;;;17.54;52.78
24422;BME280;12600;53.326;-6.298;2023-04-08T09:03:14;101872.13;;;18.11;52.36
24422;BME280;12600;53.326;-6.298;2023-04-08T09:06:04;101880.22;;;18.63;52.45
24422;BME280;12600;53.326;-6.298;2023-04-08T09:08:55;101870.38;;;19.04;51.01
24422;BME280;12600;53.326;-6.298;2023-04-08T09:11:46;101877.34;;;19.31;47.20
24422;BME280;12600;53.326;-6.298;2023-04-08T09:14:35;101867.59;;;19.45;44.16
24422;BME280;12600;53.326;-6.298;2023-04-08T09:17:31;101869.59;;;19.78;43.74
24422;BME280;12600;53.326;-6.298;2023-04-08T09:20:23;101856.84;;;19.98;42.54
24422;BME280;12600;53.326;-6.298;2023-04-08T09:23:12;101865.31;;;20.14;40.96
24422;BME280;12600;53.326;-6.298;2023-04-08T09:26:07;101863.09;;;20.19;40.35
24422;BME280;12600;53.326;-6.298;2023-04-08T09:28:58;101869.91;;;20.09;40.74
24422;BME280;12600;53.326;-6.298;2023-04-08T09:32:05;101873.41;;;19.73;40.93
24422;BME280;12600;53.326;-6.298;2023-04-08T09:34:54;101870.06;;;19.26;41.17
24422;BME280;12600;53.326;-6.298;2023-04-08T09:37:44;101855.06;;;18.77;41.17
24422;BME280;12600;53.326;-6.298;2023-04-08T09:40:34;101858.22;;;18.28;41.50
24422;BME280;12600;53.326;-6.298;2023-04-08T09:43:25;101866.66;;;17.94;42.20
24422;BME280;12600;53.326;-6.298;2023-04-08T09:46:16;101845.75;;;17.41;42.40
24422;BME280;12600;53.326;-6.298;2023-04-08T09:49:10;101867.34;;;17.13;42.79
24422;BME280;12600;53.326;-6.298;2023-04-08T09:52:07;101868.63;;;16.89;43.21
24422;BME280;12600;53.326;-6.298;2023-04-08T09:55:01;101873.41;;;16.66;43.79
24422;BME280;12600;53.326;-6.298;2023-04-08T09:57:54;101869.78;;;16.48;44.33
24422;BME280;12600;53.326;-6.298;2023-04-08T10:00:49;101856.09;;;16.35;44.88
24422;BME280;12600;53.326;-6.298;2023-04-08T10:03:47;101852.47;;;16.17;45.11
24422;BME280;12600;53.326;-6.298;2023-04-08T10:06:39;101875.53;;;16.21;45.31
24422;BME280;12600;53.326;-6.298;2023-04-08T10:09:30;101867.72;;;16.14;45.36
24422;BME280;12600;53.326;-6.298;2023-04-08T10:12:19;101865.28;;;16.61;45.33
24422;BME280;12600;53.326;-6.298;2023-04-08T10:15:26;101850.75;;;17.56;43.95
24422;BME280;12600;53.326;-6.298;2023-04-08T10:18:32;101863.53;;;18.04;41.63
24422;BME280;12600;53.326;-6.298;2023-04-08T10:21:33;101863.03;;;18.10;40.61
24422;BME280;12600;53.326;-6.298;2023-04-08T10:24:22;101866.81;;;18.06;40.29
24422;BME280;12600;53.326;-6.298;2023-04-08T10:27:38;101867.91;;;18.13;39.65
24422;BME280;12600;53.326;-6.298;2023-04-08T10:30:42;101859.53;;;18.60;40.09
24422;BME280;12600;53.326;-6.298;2023-04-08T10:33:33;101851.00;;;19.04;38.96
24422;BME280;12600;53.326;-6.298;2023-04-08T10:36:26;101856.88;;;19.77;38.70
24422;BME280;12600;53.326;-6.298;2023-04-08T10:39:16;101857.31;;;20.36;38.03
24422;BME280;12600;53.326;-6.298;2023-04-08T10:42:07;101854.34;;;20.42;36.64
24422;BME280;12600;53.326;-6.298;2023-04-08T10:45:00;101855.16;;;20.66;36.57
24422;BME280;12600;53.326;-6.298;2023-04-08T10:47:50;101851.75;;;21.10;36.50
24422;BME280;12600;53.326;-6.298;2023-04-08T10:50:41;101840.28;;;21.67;35.83
24422;BME280;12600;53.326;-6.298;2023-04-08T10:53:32;101841.66;;;22.05;35.31
24422;BME280;12600;53.326;-6.298;2023-04-08T10:56:23;101854.00;;;22.20;34.58
24422;BME280;12600;53.326;-6.298;2023-04-08T10:59:13;101843.84;;;22.12;34.37
24422;BME280;12600;53.326;-6.298;2023-04-08T11:02:04;101840.28;;;22.11;33.98
24422;BME280;12600;53.326;-6.298;2023-04-08T11:04:53;101845.28;;;21.90;32.34
24422;BME280;12600;53.326;-6.298;2023-04-08T11:07:44;101843.81;;;21.80;32.36
24422;BME280;12600;53.326;-6.298;2023-04-08T11:10:36;101837.63;;;21.87;32.66
24422;BME280;12600;53.326;-6.298;2023-04-08T11:13:26;101832.78;;;21.99;32.80
24422;BME280;12600;53.326;-6.298;2023-04-08T11:16:15;101838.13;;;22.20;31.62
24422;BME280;12600;53.326;-6.298;2023-04-08T11:19:06;101827.78;;;22.37;32.17
24422;BME280;12600;53.326;-6.298;2023-04-08T11:21:55;101844.63;;;22.59;32.64
24422;BME280;12600;53.326;-6.298;2023-04-08T11:24:46;101828.41;;;22.81;32.97
24422;BME280;12600;53.326;-6.298;2023-04-08T11:27:36;101827.44;;;23.08;33.07
24422;BME280;12600;53.326;-6.298;2023-04-08T11:30:26;101844.63;;;23.10;31.10
24422;BME280;12600;53.326;-6.298;2023-04-08T11:33:16;101834.50;;;23.22;29.82
24422;BME280;12600;53.326;-6.298;2023-04-08T11:36:05;101855.41;;;23.12;29.47
24422;BME280;12600;53.326;-6.298;2023-04-08T11:38:56;101829.13;;;23.13;30.06
24422;BME280;12600;53.326;-6.298;2023-04-08T11:41:47;101822.81;;;23.55;30.49
24422;BME280;12600;53.326;-6.298;2023-04-08T11:44:37;101836.69;;;23.70;30.62
24422;BME280;12600;53.326;-6.298;2023-04-08T11:47:30;101828.94;;;23.83;29.37
24422;BME280;12600;53.326;-6.298;2023-04-08T11:50:24;101824.34;;;23.71;29.65
24422;BME280;12600;53.326;-6.298;2023-04-08T11:53:17;101831.25;;;23.58;29.66
24422;BME280;12600;53.326;-6.298;2023-04-08T11:56:18;101825.78;;;23.42;30.67
24422;BME280;12600;53.326;-6.298;2023-04-08T11:59:09;101829.56;;;23.54;30.76
24422;BME280;12600;53.326;-6.298;2023-04-08T12:01:58;101813.94;;;23.68;31.42
24422;BME280;12600;53.326;-6.298;2023-04-08T12:04:49;101824.41;;;23.75;32.23
24422;BME280;12600;53.326;-6.298;2023-04-08T12:07:39;101826.03;;;23.76;32.02
24422;BME280;12600;53.326;-6.298;2023-04-08T12:10:28;101810.31;;;23.49;30.84
24422;BME280;12600;53.326;-6.298;2023-04-08T12:13:18;101825.16;;;23.72;30.52
24422;BME280;12600;53.326;-6.298;2023-04-08T12:16:09;101825.09;;;23.91;29.85
24422;BME280;12600;53.326;-6.298;2023-04-08T12:18:59;101828.19;;;24.09;29.78
24422;BME280;12600;53.326;-6.298;2023-04-08T12:21:48;101826.56;;;24.31;30.27
24422;BME280;12600;53.326;-6.298;2023-04-08T12:24:38;101834.03;;;24.46;30.06
24422;BME280;12600;53.326;-6.298;2023-04-08T12:27:27;101831.81;;;24.59;30.60
24422;BME280;12600;53.326;-6.298;2023-04-08T12:30:16;101839.09;;;24.64;29.57
24422;BME280;12600;53.326;-6.298;2023-04-08T12:33:07;101837.03;;;24.61;29.50
24422;BME280;12600;53.326;-6.298;2023-04-08T12:35:56;101815.47;;;24.61;30.67
24422;BME280;12600;53.326;-6.298;2023-04-08T12:38:46;101827.53;;;23.93;30.97
24422;BME280;12600;53.326;-6.298;2023-04-08T12:41:36;101842.03;;;23.40;32.47
24422;BME280;12600;53.326;-6.298;2023-04-08T12:44:25;101832.78;;;22.98;33.80
24422;BME280;12600;53.326;-6.298;2023-04-08T12:47:15;101829.63;;;22.64;34.64
24422;BME280;12600;53.326;-6.298;2023-04-08T12:50:07;101819.19;;;22.10;34.84
24422;BME280;12600;53.326;-6.298;2023-04-08T12:52:57;101832.41;;;21.85;35.77
24422;BME280;12600;53.326;-6.298;2023-04-08T12:55:46;101827.56;;;21.38;36.63
24422;BME280;12600;53.326;-6.298;2023-04-08T12:58:36;101799.06;;;21.01;37.36
24422;BME280;12600;53.326;-6.298;2023-04-08T13:01:26;101816.44;;;20.98;37.92
24422;BME280;12600;53.326;-6.298;2023-04-08T13:04:15;101823.44;;;20.80;38.27
24422;BME280;12600;53.326;-6.298;2023-04-08T13:07:08;101812.50;;;20.47;39.05
24422;BME280;12600;53.326;-6.298;2023-04-08T13:09:57;101813.50;;;20.18;39.46
24422;BME280;12600;53.326;-6.298;2023-04-08T13:12:46;101804.41;;;19.72;40.30
24422;BME280;12600;53.326;-6.298;2023-04-08T13:15:35;101823.34;;;19.58;41.08
24422;BME280;12600;53.326;-6.298;2023-04-08T13:18:25;101817.28;;;19.55;41.85
24422;BME280;12600;53.326;-6.298;2023-04-08T13:21:14;101800.34;;;19.36;42.88
24422;BME280;12600;53.326;-6.298;2023-04-08T13:24:05;101809.31;;;19.54;43.16
24422;BME280;12600;53.326;-6.298;2023-04-08T13:26:54;101812.97;;;19.46;43.47
24422;BME280;12600;53.326;-6.298;2023-04-08T13:29:44;101807.81;;;19.23;43.50
24422;BME280;12600;53.326;-6.298;2023-04-08T13:32:33;101816.25;;;19.06;44.44
24422;BME280;12600;53.326;-6.298;2023-04-08T13:35:23;101811.81;;;18.93;44.63
24422;BME280;12600;53.326;-6.298;2023-04-08T13:38:13;101814.22;;;18.73;45.32
24422;BME280;12600;53.326;-6.298;2023-04-08T13:41:04;101816.75;;;18.58;45.39
24422;BME280;12600;53.326;-6.298;2023-04-08T13:43:54;101813.34;;;18.52;45.24
24422;BME280;12600;53.326;-6.298;2023-04-08T13:46:43;101812.81;;;18.59;45.43
24422;BME280;12600;53.326;-6.298;2023-04-08T13:49:32;101817.91;;;18.86;45.17
24422;BME280;12600;53.326;-6.298;2023-04-08T13:52:22;101814.97;;;19.24;43.04
24422;BME280;12600;53.326;-6.298;2023-04-08T13:55:11;101815.34;;;19.89;42.03
24422;BME280;12600;53.326;-6.298;2023-04-08T13:58:02;101804.72;;;20.52;41.30
24422;BME280;12600;53.326;-6.298;2023-04-08T14:01:04;101810.38;;;21.08;40.10
24422;BME280;12600;53.326;-6.298;2023-04-08T14:03:53;101805.69;;;21.24;39.52
24422;BME280;12600;53.326;-6.298;2023-04-08T14:06:43;101735.50;;;20.72;38.94
24422;BME280;12600;53.326;-6.298;2023-04-08T14:09:32;101817.47;;;21.06;39.27
24422;BME280;12600;53.326;-6.298;2023-04-08T14:12:22;101808.97;;;20.86;39.31
24422;BME280;12600;53.326;-6.298;2023-04-08T14:15:13;101813.50;;;20.42;39.56
24422;BME280;12600;53.326;-6.298;2023-04-08T14:18:02;101809.56;;;20.06;40.34
24422;BME280;12600;53.326;-6.298;2023-04-08T14:20:51;101812.53;;;19.77;41.47
24422;BME280;12600;53.326;-6.298;2023-04-08T14:23:40;101808.13;;;19.43;42.01
24422;BME280;12600;53.326;-6.298;2023-04-08T14:26:30;101806.94;;;19.11;42.74
24422;BME280;12600;53.326;-6.298;2023-04-08T14:29:22;101797.72;;;18.86;43.12
24422;BME280;12600;53.326;-6.298;2023-04-08T14:32:15;101802.47;;;18.77;43.35
24422;BME280;12600;53.326;-6.298;2023-04-08T14:35:05;101805.31;;;18.68;44.10
24422;BME280;12600;53.326;-6.298;2023-04-08T14:37:55;101806.88;;;18.48;44.18
24422;BME280;12600;53.326;-6.298;2023-04-08T14:40:44;101798.63;;;18.39;44.61
24422;BME280;12600;53.326;-6.298;2023-04-08T14:43:34;101799.81;;;18.30;44.62